Pagrindinis puslapis
METAR-TAF:

METAR-TAF

Oro uostai :

Ningbo, Kinija

platuma: 29-49-36N, ilguma: 121-27-43E, Aukštis: 4 m

Dabartinis oras

Ataskaita buvo paskelbta 29 minutes, ne 18:00 UTC
Vėjas 2 kt nuo kintamojo kryptimis
Temperatūra 2°C
Drėgmė 69%
Slėgis 1032 hPa
Matomumas 10 km arba daugiau
nėra debesų žemiau 1500 m ir nėra kamuolinių lietaus debesų

METAR: ZSNB 171800Z VRB01MPS CAVOK 02/M03 Q1032 NOSIG

Laikas: 02:29 (18:29 UTC)

Prognozė

Ataskaita buvo paskelbta 3 valandos ir 24 minutes, ne 15:05 UTC
Prognozė galioja nuo 17 metu 18 UTC su 18 metu 18 UTC
Vėjas 10 kt iš Šiaurės/Šiaurės Vakarų
Matomumas: 5000 m
Išsisklaidę debesys ne aukštis 4000 ft
rūkana

TAF: ZSNB 171505Z 1718/1818 33005MPS 5000 BR SCT040 TX10/1806Z TNM01/1721Z

Orai ataskaitas ir orų prognozės (METAR, TAF).

turimą stotys yra geltonos ir raudonos taškus žemėlapyje.

Perkelti pele per norėdami pamatyti stoties vardą.

Tada spustelėkite, norėdami matyti oro stebėjimo ir prognozės.

Norėdami pakeisti žemėlapį: spustelėkite ant žalios mygtukų su juodo kryžiaus žemyn,; žalią mygtuką su brūkšneliu, jei norite nutolinti; arba žalių rodyklių gretimoms žemėlapius.


METAR-TAF: